Time;durP1;ratioP1;P1;durP2;ratioP2;P2;SDS_P1;SDS_P2;PMS_P1;PMS_P2;Temp;Humidity;BMP_temperature;BMP_pressure;BME280_temperature;BME280_humidity;BME280_pressure;Samples;Min_cycle;Max_cycle;Signal;HPM_P1;HPM_P2
2020/12/17 00:02:14;;;;;;;4.70;3.93;;;11.50;99.90;;;;;;4956163;29;20208;-91
2020/12/17 00:04:40;;;;;;;4.40;4.03;;;11.50;99.90;;;;;;4956258;28;20222;-91
2020/12/17 00:07:08;;;;;;;5.47;4.30;;;11.50;99.90;;;;;;4955824;29;20230;-92
2020/12/17 00:09:34;;;;;;;4.50;4.10;;;11.50;99.90;;;;;;4955976;29;20211;-92
2020/12/17 00:12:00;;;;;;;4.80;4.30;;;11.60;99.90;;;;;;4956122;29;20210;-91
2020/12/17 00:14:26;;;;;;;4.13;3.83;;;11.60;99.90;;;;;;4956429;28;20220;-91
2020/12/17 00:16:53;;;;;;;5.33;4.43;;;11.50;99.90;;;;;;4955690;29;20246;-91
2020/12/17 00:19:19;;;;;;;4.10;3.80;;;11.40;99.90;;;;;;4956026;29;20198;-91
2020/12/17 00:21:46;;;;;;;5.10;3.73;;;11.30;99.90;;;;;;4938714;29;20210;-92
2020/12/17 00:24:13;;;;;;;4.33;4.00;;;11.30;99.90;;;;;;4939616;29;20210;-92
2020/12/17 00:26:40;;;;;;;4.43;4.00;;;11.30;99.90;;;;;;4959277;28;20248;-92
2020/12/17 00:29:06;;;;;;;8.20;4.40;;;11.30;99.90;;;;;;4960033;29;20202;-92
2020/12/17 00:31:33;;;;;;;7.33;4.40;;;11.10;99.90;;;;;;4942838;29;20662;-92
2020/12/17 00:33:59;;;;;;;4.93;4.53;;;11.10;99.90;;;;;;4960198;28;20271;-92
2020/12/17 00:36:26;;;;;;;4.60;4.20;;;11.00;99.90;;;;;;4959597;28;20237;-92
2020/12/17 00:38:52;;;;;;;4.93;4.53;;;10.90;99.90;;;;;;4959820;29;20194;-92
2020/12/17 00:41:20;;;;;;;5.40;4.90;;;10.90;99.90;;;;;;4959632;29;20296;-92
2020/12/17 00:43:47;;;;;;;5.40;4.90;;;10.80;99.90;;;;;;4959614;28;20320;-92
2020/12/17 00:46:15;;;;;;;5.70;5.20;;;10.90;99.90;;;;;;4959675;29;20225;-91
2020/12/17 00:48:42;;;;;;;5.50;5.00;;;10.90;99.90;;;;;;4959853;28;20220;-92
2020/12/17 00:51:08;;;;;;;5.57;5.10;;;10.90;99.90;;;;;;4959734;28;20237;-92
2020/12/17 00:53:35;;;;;;;5.77;5.23;;;10.90;99.90;;;;;;4960308;28;20210;-92
2020/12/17 00:56:02;;;;;;;5.57;5.07;;;10.90;99.90;;;;;;4959207;29;20241;-91
2020/12/17 00:58:29;;;;;;;5.43;5.03;;;10.90;99.90;;;;;;4959160;28;20597;-92
2020/12/17 01:00:56;;;;;;;6.00;5.50;;;10.80;99.90;;;;;;4959986;29;20214;-91
2020/12/17 01:03:22;;;;;;;6.73;5.47;;;10.80;99.90;;;;;;4959222;29;20213;-91
2020/12/17 01:05:49;;;;;;;6.93;5.20;;;10.80;99.90;;;;;;4959423;29;20209;-92
2020/12/17 01:08:15;;;;;;;7.70;5.60;;;10.80;99.90;;;;;;4959364;28;20245;-92
2020/12/17 01:10:42;;;;;;;6.00;5.47;;;10.80;99.90;;;;;;4959205;28;20642;-92
2020/12/17 01:13:08;;;;;;;6.70;6.13;;;10.80;99.90;;;;;;4959074;29;20646;-92
2020/12/17 01:15:35;;;;;;;6.80;6.20;;;10.80;99.90;;;;;;4943453;29;20237;-92
2020/12/17 01:18:02;;;;;;;5.80;5.23;;;10.90;99.90;;;;;;4962893;29;20337;-92
2020/12/17 01:20:28;;;;;;;6.10;5.60;;;10.70;99.90;;;;;;4961888;29;20201;-92
2020/12/17 01:22:55;;;;;;;6.40;5.77;;;10.70;99.90;;;;;;4962336;29;20206;-92
2020/12/17 01:25:22;;;;;;;9.63;5.90;;;10.70;99.90;;;;;;4962267;29;20213;-92
2020/12/17 01:27:48;;;;;;;7.03;6.33;;;10.70;99.90;;;;;;4944455;29;20233;-92
2020/12/17 01:30:15;;;;;;;11.53;6.73;;;10.70;99.90;;;;;;4961084;28;20216;-91
2020/12/17 01:32:42;;;;;;;10.20;6.47;;;10.80;99.90;;;;;;4960941;29;20205;-92
2020/12/17 01:35:08;;;;;;;7.17;5.80;;;10.80;99.90;;;;;;4961009;29;20228;-92
2020/12/17 01:37:35;;;;;;;6.53;5.97;;;10.80;99.90;;;;;;4959516;28;20321;-91
2020/12/17 01:40:01;;;;;;;7.00;6.30;;;10.70;99.90;;;;;;4960486;29;20681;-93
2020/12/17 01:42:28;;;;;;;6.30;5.70;;;10.70;99.90;;;;;;4960758;29;20205;-92
2020/12/17 01:44:54;;;;;;;8.53;6.43;;;10.70;99.90;;;;;;4960201;29;20198;-92
2020/12/17 01:47:21;;;;;;;8.00;6.97;;;10.60;99.90;;;;;;4960472;29;20237;-92
2020/12/17 01:49:49;;;;;;;8.73;6.33;;;10.70;99.90;;;;;;4959759;29;20210;-92
2020/12/17 01:52:15;;;;;;;9.13;6.70;;;10.70;99.90;;;;;;4959812;29;20261;-92
2020/12/17 01:54:53;;;;;;;7.70;6.27;;;10.60;99.90;;;;;;4958769;29;20191;-92
2020/12/17 01:57:21;;;;;;;7.90;7.10;;;10.70;99.90;;;;;;4958745;29;20233;-92
2020/12/17 01:59:48;;;;;;;7.23;6.37;;;10.60;99.90;;;;;;4941814;29;20206;-92
2020/12/17 02:02:16;;;;;;;10.23;6.97;;;10.60;99.90;;;;;;4958668;29;20216;-92
2020/12/17 02:04:43;;;;;;;9.17;6.73;;;10.60;99.90;;;;;;4958672;29;20282;-92
2020/12/17 02:07:11;;;;;;;7.80;7.00;;;10.50;99.90;;;;;;4958705;29;20642;-92
2020/12/17 02:09:38;;;;;;;8.73;7.20;;;10.50;99.90;;;;;;4958630;29;20216;-93
2020/12/17 02:12:05;;;;;;;7.80;6.93;;;10.60;99.90;;;;;;4951352;29;20210;-92
2020/12/17 02:14:31;;;;;;;8.77;7.87;;;10.60;99.90;;;;;;4958094;29;20202;-92
2020/12/17 02:16:57;;;;;;;8.87;7.43;;;10.60;99.90;;;;;;4958207;29;20582;-92
2020/12/17 02:19:24;;;;;;;8.53;7.67;;;10.50;99.90;;;;;;4958556;29;20217;-92
2020/12/17 02:21:50;;;;;;;10.43;7.47;;;10.40;99.90;;;;;;4958197;28;20219;-92
2020/12/17 02:24:20;;;;;;;8.63;6.93;;;10.40;99.90;;;;;;4958046;29;20190;-92
2020/12/17 02:26:46;;;;;;;8.57;7.67;;;10.40;99.90;;;;;;4940634;29;20705;-92
2020/12/17 02:29:13;;;;;;;12.17;9.37;;;10.50;99.90;;;;;;4957805;29;20206;-92
2020/12/17 02:31:39;;;;;;;12.87;8.57;;;10.60;99.90;;;;;;4940553;29;20213;-92
2020/12/17 02:34:05;;;;;;;11.67;8.17;;;10.60;99.90;;;;;;4957603;29;20221;-92
2020/12/17 02:36:32;;;;;;;11.13;8.03;;;10.40;99.90;;;;;;4957688;28;20237;-92
2020/12/17 02:38:58;;;;;;;10.53;8.00;;;10.50;99.90;;;;;;4958115;29;20206;-92
2020/12/17 02:41:26;;;;;;;8.50;7.50;;;10.40;99.90;;;;;;4957853;29;20630;-92
2020/12/17 02:43:53;;;;;;;8.70;7.90;;;10.40;99.90;;;;;;4940529;29;20206;-92
2020/12/17 02:46:20;;;;;;;9.03;8.20;;;10.40;99.90;;;;;;4957620;29;20729;-92
2020/12/17 02:48:49;;;;;;;9.57;7.30;;;10.40;99.90;;;;;;4958146;28;20648;-92
2020/12/17 02:51:16;;;;;;;8.23;7.40;;;10.40;99.90;;;;;;4957208;29;20190;-92
2020/12/17 02:56:53;;;;;;;11.03;7.67;;;10.40;99.90;;;;;;5043266;23;20245;-90
2020/12/17 02:59:19;;;;;;;11.07;7.57;;;10.40;99.90;;;;;;4977043;28;20232;-89
2020/12/17 03:01:46;;;;;;;8.03;7.33;;;10.40;99.90;;;;;;4986677;28;20295;-88
2020/12/17 03:04:12;;;;;;;8.87;7.43;;;10.30;99.90;;;;;;4977309;28;20196;-93
2020/12/17 03:06:39;;;;;;;8.60;7.80;;;10.40;99.90;;;;;;4976901;28;20266;-94
2020/12/17 03:11:41;;;;;;;9.57;8.13;;;10.40;99.90;;;;;;5447385;23;20791;-92
2020/12/17 03:14:08;;;;;;;8.33;7.63;;;10.30;99.90;;;;;;4957469;29;20288;-93
2020/12/17 03:16:34;;;;;;;8.47;7.67;;;10.30;99.90;;;;;;4956709;29;20261;-91
2020/12/17 03:19:01;;;;;;;8.00;7.20;;;10.20;99.90;;;;;;4957930;29;20241;-92
2020/12/17 03:21:28;;;;;;;8.53;7.63;;;10.30;99.90;;;;;;4940272;29;20308;-92
2020/12/17 03:23:55;;;;;;;8.63;7.83;;;10.30;99.90;;;;;;4957345;29;20242;-92
2020/12/17 03:26:21;;;;;;;8.57;7.57;;;10.30;99.90;;;;;;4939747;29;20690;-94
2020/12/17 03:28:47;;;;;;;8.70;7.70;;;10.20;99.90;;;;;;4956776;29;20201;-92
2020/12/17 03:31:15;;;;;;;8.73;8.00;;;10.40;99.90;;;;;;4956645;29;20241;-93
2020/12/17 03:33:41;;;;;;;10.67;7.63;;;10.40;99.90;;;;;;4956854;29;20285;-93
2020/12/17 03:36:08;;;;;;;8.17;7.43;;;10.40;99.90;;;;;;4956527;29;20241;-92
2020/12/17 03:38:34;;;;;;;10.13;7.67;;;10.50;99.90;;;;;;4956740;29;20206;-93
2020/12/17 03:41:00;;;;;;;8.23;7.57;;;10.40;99.90;;;;;;4957178;29;20307;-93
2020/12/17 03:43:26;;;;;;;8.33;7.37;;;10.50;99.90;;;;;;4956492;29;20205;-92
2020/12/17 03:45:53;;;;;;;9.33;6.90;;;10.30;99.90;;;;;;4957034;29;20277;-92
2020/12/17 03:48:20;;;;;;;9.53;8.27;;;10.20;99.90;;;;;;4956779;29;20216;-93
2020/12/17 03:50:46;;;;;;;9.20;8.13;;;10.20;99.90;;;;;;4956331;29;20309;-92
2020/12/17 03:53:13;;;;;;;7.63;6.93;;;10.20;99.90;;;;;;4939389;29;20214;-93
2020/12/17 03:55:39;;;;;;;8.97;8.07;;;10.20;99.90;;;;;;4955898;29;20222;-93
2020/12/17 03:58:06;;;;;;;9.50;8.53;;;10.10;99.90;;;;;;4956589;29;20261;-93
2020/12/17 04:00:32;;;;;;;9.20;8.20;;;10.20;99.90;;;;;;4955642;28;20646;-93
2020/12/17 04:02:58;;;;;;;9.33;7.97;;;10.20;99.90;;;;;;4955911;29;20210;-92
2020/12/17 04:05:26;;;;;;;8.90;8.00;;;10.20;99.90;;;;;;4956075;29;20190;-92
2020/12/17 04:07:52;;;;;;;11.03;9.00;;;10.20;99.90;;;;;;4955987;29;20226;-92
2020/12/17 04:10:18;;;;;;;10.47;8.73;;;10.20;99.90;;;;;;4955810;28;20245;-92
2020/12/17 04:12:45;;;;;;;10.33;8.67;;;10.10;99.90;;;;;;4956190;29;20304;-92
2020/12/17 04:15:11;;;;;;;9.53;8.53;;;10.10;99.90;;;;;;4956224;29;20296;-92
2020/12/17 04:17:38;;;;;;;9.63;8.50;;;10.10;99.90;;;;;;4955996;29;20395;-92
2020/12/17 04:20:04;;;;;;;10.50;9.47;;;10.10;99.90;;;;;;4931350;29;20244;-93
2020/12/17 04:22:32;;;;;;;11.70;8.60;;;10.10;99.90;;;;;;4956616;29;20638;-92
2020/12/17 04:24:58;;;;;;;9.40;8.53;;;10.10;99.90;;;;;;4956146;29;20357;-92
2020/12/17 04:27:25;;;;;;;10.00;8.97;;;10.00;99.90;;;;;;4956593;29;20320;-92
2020/12/17 04:29:51;;;;;;;11.37;9.23;;;10.00;99.90;;;;;;4939275;29;20210;-92
2020/12/17 04:32:18;;;;;;;11.00;8.33;;;10.00;99.90;;;;;;4956040;29;20749;-91
2020/12/17 04:34:44;;;;;;;10.17;8.80;;;10.00;99.90;;;;;;4957067;29;20666;-92
2020/12/17 04:37:11;;;;;;;11.30;8.97;;;10.00;99.90;;;;;;4955808;29;20820;-91
2020/12/17 04:39:38;;;;;;;9.77;8.50;;;10.00;99.90;;;;;;4956560;29;20567;-92
2020/12/17 04:42:06;;;;;;;10.10;8.13;;;9.90;99.90;;;;;;4956740;29;20264;-90
2020/12/17 04:44:34;;;;;;;8.83;7.93;;;10.00;99.90;;;;;;4958449;29;20214;-90
2020/12/17 04:47:02;;;;;;;9.33;8.40;;;10.00;99.90;;;;;;4955749;29;20320;-92
2020/12/17 04:49:33;;;;;;;8.80;7.90;;;10.00;99.90;;;;;;4955635;29;20292;-92
2020/12/17 04:52:00;;;;;;;9.70;8.00;;;10.00;99.90;;;;;;4956467;29;20213;-92
2020/12/17 04:54:28;;;;;;;9.50;7.37;;;10.00;99.90;;;;;;4955721;29;20210;-93
2020/12/17 04:57:06;;;;;;;7.93;7.10;;;10.00;99.90;;;;;;4955590;29;20589;-92
2020/12/17 05:07:55;;;;;;;6.93;6.23;;;9.80;99.90;;;;;;5008230;23;20627;-92
2020/12/17 05:10:21;;;;;;;7.10;6.50;;;9.90;99.90;;;;;;4980461;28;20220;-90
2020/12/17 05:12:49;;;;;;;8.70;6.70;;;9.80;99.90;;;;;;4976916;28;20208;-88
2020/12/17 05:18:13;;;;;;;8.30;6.47;;;9.80;99.90;;;;;;4987294;23;20246;-91
2020/12/17 05:20:39;;;;;;;7.83;6.27;;;9.90;99.90;;;;;;4959312;29;20265;-93
2020/12/17 05:26:00;;;;;;;8.80;5.80;;;9.90;99.90;;;;;;5012217;23;20256;-88
2020/12/17 05:28:28;;;;;;;7.80;6.57;;;9.90;99.90;;;;;;4983952;28;20724;-91
2020/12/17 05:30:54;;;;;;;7.50;5.63;;;9.90;99.90;;;;;;4979318;28;20213;-91
2020/12/17 05:45:31;;;;;;;6.77;6.07;;;9.70;99.90;;;;;;5042433;23;20340;-89
2020/12/17 05:51:07;;;;;;;6.10;5.50;;;9.80;99.90;;;;;;4976149;23;20246;-89
2020/12/17 05:53:40;;;;;;;8.53;5.87;;;9.80;99.90;;;;;;4959078;29;20241;-91
2020/12/17 05:56:07;;;;;;;5.70;5.17;;;9.80;99.90;;;;;;4960033;29;20587;-90
2020/12/17 06:17:31;;;;;;;6.60;4.63;;;9.70;99.90;;;;;;5072418;23;20271;-90
2020/12/17 06:22:49;;;;;;;5.80;4.97;;;9.80;99.90;;;;;;5005321;23;20611;-88
2020/12/17 06:25:17;;;;;;;4.67;4.27;;;9.90;99.90;;;;;;4959036;29;20247;-87
2020/12/17 06:52:06;;;;;;;5.20;4.70;;;9.90;99.90;;;;;;4918534;29;20226;-89
2020/12/17 06:54:38;;;;;;;5.57;4.83;;;10.00;99.90;;;;;;4919192;29;20376;-91
2020/12/17 06:57:06;;;;;;;5.50;5.00;;;10.00;99.90;;;;;;4919414;29;20245;-91
2020/12/17 06:59:33;;;;;;;6.37;5.10;;;10.00;99.90;;;;;;4919562;29;20277;-92
2020/12/17 07:02:00;;;;;;;5.43;5.03;;;10.00;99.90;;;;;;4918996;29;20215;-91
2020/12/17 07:07:21;;;;;;;7.07;5.60;;;9.90;99.90;;;;;;4982320;23;20249;-93
2020/12/17 07:09:49;;;;;;;6.37;5.37;;;9.90;99.90;;;;;;4957276;29;20588;-93
2020/12/17 07:12:42;;;;;;;9.33;5.03;;;10.10;99.90;;;;;;4957145;29;20244;-93
2020/12/17 07:15:30;;;;;;;10.40;5.60;;;10.20;99.90;;;;;;4956951;29;20642;-93
2020/12/17 07:18:19;;;;;;;7.73;5.40;;;10.20;99.90;;;;;;4956753;29;20267;-91
2020/12/17 07:20:50;;;;;;;9.33;5.40;;;10.10;99.90;;;;;;4956581;29;20214;-91
2020/12/17 07:23:17;;;;;;;6.73;5.67;;;10.10;99.90;;;;;;4956576;29;20216;-91
2020/12/17 07:25:44;;;;;;;8.40;5.57;;;10.10;99.90;;;;;;4956733;29;20222;-91
2020/12/17 07:28:14;;;;;;;5.77;5.17;;;10.00;99.90;;;;;;4956610;29;20213;-91
2020/12/17 07:30:51;;;;;;;9.63;5.60;;;10.10;99.90;;;;;;4956559;29;20709;-91
2020/12/17 07:33:41;;;;;;;7.87;5.27;;;10.00;99.90;;;;;;4957309;29;20206;-90
2020/12/17 07:36:08;;;;;;;8.70;5.93;;;9.80;99.90;;;;;;4956832;28;20233;-90
2020/12/17 07:38:35;;;;;;;9.10;5.57;;;9.80;99.90;;;;;;4956302;29;20717;-92
2020/12/17 07:41:02;;;;;;;9.53;5.80;;;9.70;99.90;;;;;;4956719;29;20206;-90
2020/12/17 07:43:39;;;;;;;6.97;5.50;;;9.70;99.90;;;;;;4958422;29;20675;-90
2020/12/17 07:46:07;;;;;;;6.70;6.00;;;9.60;99.90;;;;;;4942003;29;20226;-90
2020/12/17 08:47:49;;;;;;;10.00;5.40;;;9.70;99.90;;;;;;2449100;23;20298;-82
2020/12/17 12:02:55;;;;;;;11.73;2.90;;;10.90;99.90;;;;;;906760;23;20581;-89
2020/12/17 12:05:23;;;;;;;10.00;3.97;;;11.10;99.90;;;;;;4974598;28;20303;-94
2020/12/17 12:07:49;;;;;;;6.90;3.23;;;11.10;99.90;;;;;;4975847;28;20578;-93
2020/12/17 12:10:15;;;;;;;10.63;2.90;;;11.30;99.90;;;;;;4976253;28;20225;-96
2020/12/17 12:12:41;;;;;;;8.77;3.20;;;11.50;99.90;;;;;;4975045;28;20432;-92
2020/12/17 12:15:08;;;;;;;15.87;2.90;;;11.80;99.90;;;;;;4976036;28;20203;-93
2020/12/17 12:17:34;;;;;;;6.13;2.87;;;11.80;99.90;;;;;;4975200;28;20244;-92
2020/12/17 12:20:01;;;;;;;7.63;2.10;;;12.00;99.90;;;;;;4975400;28;20213;-92
2020/12/17 12:22:28;;;;;;;19.03;3.30;;;11.90;99.90;;;;;;4975365;28;20206;-92
2020/12/17 12:24:54;;;;;;;7.10;2.50;;;11.80;99.90;;;;;;4975314;28;20210;-92
2020/12/17 12:27:20;;;;;;;11.77;4.60;;;11.70;99.90;;;;;;4975282;28;20235;-93
2020/12/17 12:29:47;;;;;;;8.33;2.57;;;11.80;99.90;;;;;;4958294;28;20209;-93
2020/12/17 12:32:15;;;;;;;9.30;2.37;;;11.70;99.90;;;;;;4975560;28;20702;-94
2020/12/17 12:34:41;;;;;;;6.90;2.33;;;11.60;99.90;;;;;;4975518;28;20210;-93
2020/12/17 12:37:08;;;;;;;7.53;2.40;;;11.60;99.90;;;;;;4975063;28;20240;-93
2020/12/17 12:39:35;;;;;;;5.67;2.20;;;11.60;99.90;;;;;;4975389;28;20273;-93
2020/12/17 12:42:01;;;;;;;7.20;3.03;;;11.70;99.90;;;;;;4976026;28;20630;-94
2020/12/17 12:44:28;;;;;;;8.30;2.73;;;11.80;99.90;;;;;;4975716;28;20234;-92
2020/12/17 12:46:54;;;;;;;7.23;2.43;;;11.80;99.90;;;;;;4975330;28;20229;-92
2020/12/17 12:49:20;;;;;;;4.37;2.40;;;11.80;99.90;;;;;;4975076;28;20299;-92
2020/12/17 12:51:48;;;;;;;6.93;3.20;;;11.90;99.90;;;;;;4975043;28;20210;-91
2020/12/17 12:54:14;;;;;;;6.50;2.27;;;11.90;99.90;;;;;;4974920;28;20217;-92
2020/12/17 12:56:41;;;;;;;10.43;2.53;;;12.00;99.90;;;;;;4975740;28;20237;-93
2020/12/17 12:59:08;;;;;;;6.00;2.20;;;11.80;99.90;;;;;;4975569;28;20228;-91
2020/12/17 13:01:35;;;;;;;7.33;2.70;;;11.90;99.90;;;;;;4975431;28;20552;-91
2020/12/17 13:04:02;;;;;;;5.53;2.43;;;11.80;99.90;;;;;;4975186;28;20322;-93
2020/12/17 13:06:28;;;;;;;7.33;2.90;;;11.70;99.90;;;;;;4957802;28;20234;-92
2020/12/17 13:08:54;;;;;;;4.80;2.60;;;11.90;99.90;;;;;;4974784;28;20218;-90
2020/12/17 13:11:22;;;;;;;7.87;2.60;;;11.90;99.90;;;;;;4974932;28;20292;-93
2020/12/17 13:13:50;;;;;;;10.80;2.37;;;11.90;99.90;;;;;;4974790;28;20221;-91
2020/12/17 13:16:22;;;;;;;5.73;2.57;;;11.80;99.90;;;;;;4975262;28;20238;-94
2020/12/17 13:18:49;;;;;;;6.27;2.43;;;11.90;99.90;;;;;;4974828;28;20221;-90
2020/12/17 13:21:16;;;;;;;10.37;2.77;;;12.00;99.90;;;;;;4975081;28;20303;-91
2020/12/17 13:23:42;;;;;;;10.30;2.67;;;12.00;99.90;;;;;;4975050;28;20218;-91
2020/12/17 13:26:09;;;;;;;8.90;2.73;;;12.00;99.90;;;;;;4974871;28;20223;-91
2020/12/17 13:28:35;;;;;;;6.07;2.27;;;12.00;99.90;;;;;;4974463;28;20281;-91
2020/12/17 13:31:02;;;;;;;11.13;2.60;;;12.00;99.90;;;;;;4974832;28;20207;-92
2020/12/17 13:33:29;;;;;;;11.97;2.63;;;12.00;99.90;;;;;;4976236;28;20531;-92
2020/12/17 13:35:55;;;;;;;11.50;2.87;;;11.80;99.90;;;;;;4960755;28;20649;-92
2020/12/17 13:38:21;;;;;;;6.47;2.30;;;11.80;99.90;;;;;;4978824;28;20214;-92
2020/12/17 13:40:48;;;;;;;12.43;3.00;;;11.80;99.90;;;;;;4978297;28;20211;-91
2020/12/17 13:43:14;;;;;;;5.47;2.13;;;11.80;99.90;;;;;;4978307;28;20195;-92
2020/12/17 13:45:41;;;;;;;8.60;2.50;;;11.70;99.90;;;;;;4977716;28;20209;-94
2020/12/17 13:48:08;;;;;;;8.13;2.43;;;11.50;99.90;;;;;;4978424;28;20630;-92
2020/12/17 13:50:36;;;;;;;9.00;2.47;;;11.40;99.90;;;;;;4977890;28;20207;-92
2020/12/17 13:53:02;;;;;;;7.87;2.33;;;11.50;99.90;;;;;;4970269;28;20285;-92
2020/12/17 13:55:29;;;;;;;5.67;1.93;;;11.50;99.90;;;;;;4978381;28;20214;-91
2020/12/17 13:57:55;;;;;;;15.00;2.83;;;11.60;99.90;;;;;;4977911;28;20233;-92
2020/12/17 14:00:22;;;;;;;4.87;2.10;;;11.60;99.90;;;;;;4978033;28;20207;-91
2020/12/17 14:02:49;;;;;;;3.37;1.97;;;11.70;99.90;;;;;;4960596;28;20202;-92
2020/12/17 14:05:16;;;;;;;8.27;2.40;;;11.80;99.90;;;;;;4977122;28;20242;-92
2020/12/17 14:07:42;;;;;;;8.13;2.30;;;11.80;99.90;;;;;;4977363;28;20701;-92
2020/12/17 14:10:09;;;;;;;9.37;2.50;;;11.70;99.90;;;;;;4978492;28;20216;-92
2020/12/17 14:12:35;;;;;;;6.53;2.23;;;11.80;99.90;;;;;;4977402;28;20199;-91
2020/12/17 14:15:02;;;;;;;10.37;2.90;;;11.80;99.90;;;;;;4977778;28;20203;-92
2020/12/17 14:17:28;;;;;;;16.87;2.77;;;11.80;99.90;;;;;;4977220;28;20282;-92
2020/12/17 14:19:55;;;;;;;16.90;3.77;;;11.60;99.90;;;;;;4977645;28;20268;-92
2020/12/17 14:22:22;;;;;;;13.87;3.60;;;11.70;99.90;;;;;;4978052;28;20264;-92
2020/12/17 14:24:48;;;;;;;10.03;2.77;;;11.60;99.90;;;;;;4977064;28;20211;-92
2020/12/17 14:27:15;;;;;;;9.90;2.20;;;11.50;99.90;;;;;;4977965;28;20765;-92
2020/12/17 14:29:41;;;;;;;8.20;2.67;;;11.50;99.90;;;;;;4976981;28;20233;-90
2020/12/17 14:32:07;;;;;;;11.33;2.53;;;11.70;99.90;;;;;;4977101;28;20202;-89
2020/12/17 14:34:34;;;;;;;11.10;2.70;;;11.70;99.90;;;;;;4977143;28;20206;-90
2020/12/17 14:37:00;;;;;;;10.27;2.63;;;11.70;99.90;;;;;;4977132;28;20238;-89
2020/12/17 14:39:28;;;;;;;9.43;2.73;;;11.70;99.90;;;;;;4977209;28;20216;-90
2020/12/17 14:41:58;;;;;;;11.50;2.43;;;11.70;99.90;;;;;;4976791;28;20206;-92
2020/12/17 14:44:24;;;;;;;8.87;2.60;;;11.60;99.90;;;;;;4976716;28;20217;-90
2020/12/17 14:46:51;;;;;;;11.43;3.60;;;11.50;99.90;;;;;;4976651;28;20273;-93
2020/12/17 14:49:18;;;;;;;15.87;3.97;;;11.40;99.90;;;;;;4977241;28;20582;-91
2020/12/17 14:51:44;;;;;;;10.33;2.80;;;11.50;99.90;;;;;;4976599;28;20212;-90
2020/12/17 14:54:10;;;;;;;11.27;2.50;;;11.50;99.90;;;;;;4976448;28;20232;-90
2020/12/17 14:56:38;;;;;;;8.97;2.00;;;11.40;99.90;;;;;;4976472;28;20229;-89
2020/12/17 14:59:05;;;;;;;15.00;2.87;;;11.20;99.90;;;;;;4976990;28;20209;-88
2020/12/17 15:01:31;;;;;;;15.10;3.53;;;11.20;99.90;;;;;;4960071;28;20529;-89
2020/12/17 15:03:58;;;;;;;14.53;3.37;;;11.20;99.90;;;;;;4976530;28;20663;-89
2020/12/17 15:06:24;;;;;;;12.57;2.67;;;11.20;99.90;;;;;;4976269;28;20596;-89
2020/12/17 15:08:50;;;;;;;10.37;2.27;;;11.20;99.90;;;;;;4976607;28;20290;-89
2020/12/17 15:11:18;;;;;;;13.13;2.23;;;11.10;99.90;;;;;;4976329;28;20209;-89
2020/12/17 15:13:45;;;;;;;14.57;2.67;;;11.10;99.90;;;;;;4976052;28;20198;-90
2020/12/17 15:16:11;;;;;;;26.60;4.93;;;11.10;99.90;;;;;;4975781;28;20232;-89
2020/12/17 15:18:38;;;;;;;12.40;3.13;;;11.00;99.90;;;;;;4976949;28;20312;-88
2020/12/17 15:24:26;;;;;;;16.57;4.60;;;11.00;99.90;;;;;;4977907;28;20247;-88
2020/12/17 15:26:53;;;;;;;7.27;2.70;;;11.00;99.90;;;;;;4975954;28;20229;-88
2020/12/17 15:29:22;;;;;;;19.67;3.27;;;10.90;99.90;;;;;;4975912;28;20205;-89
2020/12/17 15:31:48;;;;;;;9.23;2.80;;;10.80;99.90;;;;;;4976547;28;20645;-89
2020/12/17 15:34:15;;;;;;;8.93;2.70;;;10.80;99.90;;;;;;4976394;28;20212;-89
2020/12/17 15:36:41;;;;;;;17.80;2.77;;;10.90;99.90;;;;;;4975734;28;20233;-88
2020/12/17 15:39:07;;;;;;;24.73;3.93;;;10.90;99.90;;;;;;4976472;28;20213;-88
2020/12/17 15:41:34;;;;;;;25.87;3.10;;;11.00;99.90;;;;;;4958588;28;20272;-88
2020/12/17 16:28:07;;;;;;;8.80;3.13;;;10.60;99.90;;;;;;5717576;23;20223;-85
